Airfield :
LOGIN :

Register | Disclaimer

   EN    FR    IT 

 










Legend :    VFR   Marginal VFR   IFR   Intensive IFR   Very Intensive IFR
Visi :
Ceiling :
>= 8 km
>= 3000ft
5 to 8 km
1000 to 3000 ft
1500m to 5 km
500 to 1000 ft
800 to 1500m
200 to 500 ft
< 800m
< 200 ft
Symbols :   Thunderstorms  Fog  Heavy snow  Heavy precipitations  Wind > 20 kt
SIGMETs :     Misc.  Thunderstorms  Icing  Turbulence  Mountain Waves  Volcanic Ashes







- Airport Elevation : 614 ft
- IATA code : CRL


EBCI - Charleroi

CURRENT METAR :
  • 220620Z 23004KT 9999 FEW020 15/11 Q1014 TEMPO 4000 -TSRA

EXPIRED METARs :
  • 220550Z 25008KT 9999 FEW020 13/11 Q1014 NOSIG
  • 220520Z 21003KT 180V240 CAVOK 15/11 Q1014 NOSIG
  • 220450Z 21005KT 190V250 9000 NSC 14/10 Q1014 NOSIG
  • 220420Z 17005KT 9000 NSC 14/10 Q1013 NOSIG
  • 220350Z 16005KT 9000 NSC 14/10 Q1014 NOSIG

TAF TAF EBCI
Valid from the 22 at 06:00 until the 23 at 12:00 UTC


220520Z 2206/2312 VRB03KT 9000 NSC
PROB30
TEMPO 2207/2209 VRB15G25KT 4000 SHRA -TSRA
PROB30
TEMPO 2209/2215 4000 SHRA -TSRA
BECMG 2212/2214 22012KT
PROB40
TEMPO 2219/2221 27006KT
PROB30
TEMPO 2301/2308 3500 RA SHRA SCT005 BKN011
BECMG 2307/2309 27010KT
No reported NOTAMs for that airfield.



MET'MAP, your aeronautical weather chart ! - Copyright ORBIFLY December 2007 - Disclaimer

ORBIFLY MET'MAP TEAM :

Programming & Development : Alexandra Zaïnal
Concept & Development : Baudouin d'Aumeries
Co-Development & Prog : Marc-Olivier Méhu
Technical & hardware support : Manuel Goepfert

Contact : metmap@orbifly.com




SOURCES & CREDITS :

   NOAA